sensor_id;sensor_type;location;lat;lon;timestamp;P1;durP1;ratioP1;P2;durP2;ratioP2
313;SDS011;143;51.634;7.112;2022-12-07T00:00:29;20.57;;;11.60;;
313;SDS011;143;51.634;7.112;2022-12-07T00:02:55;28.93;;;11.87;;
313;SDS011;143;51.634;7.112;2022-12-07T00:05:21;18.50;;;12.57;;
313;SDS011;143;51.634;7.112;2022-12-07T00:07:46;17.40;;;12.60;;
313;SDS011;143;51.634;7.112;2022-12-07T00:10:12;22.87;;;13.33;;
313;SDS011;143;51.634;7.112;2022-12-07T00:12:38;16.83;;;11.53;;
313;SDS011;143;51.634;7.112;2022-12-07T00:15:03;22.13;;;12.47;;
313;SDS011;143;51.634;7.112;2022-12-07T00:17:29;19.45;;;12.45;;
313;SDS011;143;51.634;7.112;2022-12-07T00:19:55;17.00;;;12.70;;
313;SDS011;143;51.634;7.112;2022-12-07T00:22:21;22.00;;;13.27;;
313;SDS011;143;51.634;7.112;2022-12-07T00:24:46;18.47;;;11.63;;
313;SDS011;143;51.634;7.112;2022-12-07T00:27:12;20.87;;;12.47;;
313;SDS011;143;51.634;7.112;2022-12-07T00:29:37;19.43;;;12.43;;
313;SDS011;143;51.634;7.112;2022-12-07T00:32:03;19.30;;;11.13;;
313;SDS011;143;51.634;7.112;2022-12-07T00:34:29;21.13;;;12.80;;
313;SDS011;143;51.634;7.112;2022-12-07T00:36:54;19.13;;;14.17;;
313;SDS011;143;51.634;7.112;2022-12-07T00:39:20;17.87;;;12.20;;
313;SDS011;143;51.634;7.112;2022-12-07T00:41:46;19.93;;;12.43;;
313;SDS011;143;51.634;7.112;2022-12-07T00:44:12;21.13;;;13.20;;
313;SDS011;143;51.634;7.112;2022-12-07T00:46:38;25.53;;;13.53;;
313;SDS011;143;51.634;7.112;2022-12-07T00:49:03;24.13;;;14.30;;
313;SDS011;143;51.634;7.112;2022-12-07T00:51:29;21.00;;;13.73;;
313;SDS011;143;51.634;7.112;2022-12-07T00:53:55;25.80;;;13.20;;
313;SDS011;143;51.634;7.112;2022-12-07T00:56:22;19.87;;;13.77;;
313;SDS011;143;51.634;7.112;2022-12-07T00:58:53;24.05;;;13.30;;
313;SDS011;143;51.634;7.112;2022-12-07T01:01:24;19.40;;;11.73;;
313;SDS011;143;51.634;7.112;2022-12-07T01:03:51;23.38;;;14.50;;
313;SDS011;143;51.634;7.112;2022-12-07T01:06:17;19.93;;;14.67;;
313;SDS011;143;51.634;7.112;2022-12-07T01:08:44;29.52;;;13.90;;
313;SDS011;143;51.634;7.112;2022-12-07T01:11:12;23.43;;;15.03;;
313;SDS011;143;51.634;7.112;2022-12-07T01:13:41;22.63;;;14.45;;
313;SDS011;143;51.634;7.112;2022-12-07T01:16:08;23.58;;;15.05;;
313;SDS011;143;51.634;7.112;2022-12-07T01:18:36;24.70;;;15.50;;
313;SDS011;143;51.634;7.112;2022-12-07T01:21:06;24.00;;;14.87;;
313;SDS011;143;51.634;7.112;2022-12-07T01:23:35;23.02;;;14.77;;
313;SDS011;143;51.634;7.112;2022-12-07T01:26:03;25.45;;;14.85;;
313;SDS011;143;51.634;7.112;2022-12-07T01:28:34;22.38;;;14.80;;
313;SDS011;143;51.634;7.112;2022-12-07T01:31:04;22.00;;;13.70;;
313;SDS011;143;51.634;7.112;2022-12-07T01:33:32;22.17;;;16.17;;
313;SDS011;143;51.634;7.112;2022-12-07T01:36:03;23.90;;;14.40;;
313;SDS011;143;51.634;7.112;2022-12-07T01:38:32;23.37;;;14.83;;
313;SDS011;143;51.634;7.112;2022-12-07T01:40:59;22.80;;;14.38;;
313;SDS011;143;51.634;7.112;2022-12-07T01:43:27;31.92;;;15.63;;
313;SDS011;143;51.634;7.112;2022-12-07T01:45:54;23.20;;;15.55;;
313;SDS011;143;51.634;7.112;2022-12-07T01:48:39;29.70;;;16.37;;
313;SDS011;143;51.634;7.112;2022-12-07T01:51:11;27.15;;;13.73;;
313;SDS011;143;51.634;7.112;2022-12-07T01:53:40;21.93;;;15.20;;
313;SDS011;143;51.634;7.112;2022-12-07T01:56:10;24.55;;;15.00;;
313;SDS011;143;51.634;7.112;2022-12-07T01:58:41;28.83;;;15.80;;
313;SDS011;143;51.634;7.112;2022-12-07T02:01:06;24.93;;;14.10;;
313;SDS011;143;51.634;7.112;2022-12-07T02:03:34;23.63;;;14.90;;
313;SDS011;143;51.634;7.112;2022-12-07T02:06:04;23.63;;;15.90;;
313;SDS011;143;51.634;7.112;2022-12-07T02:08:31;20.70;;;14.27;;
313;SDS011;143;51.634;7.112;2022-12-07T02:10:58;23.27;;;15.55;;
313;SDS011;143;51.634;7.112;2022-12-07T02:13:28;26.43;;;15.70;;
313;SDS011;143;51.634;7.112;2022-12-07T02:21:20;21.60;;;14.67;;
313;SDS011;143;51.634;7.112;2022-12-07T02:24:13;24.63;;;15.50;;
313;SDS011;143;51.634;7.112;2022-12-07T02:27:02;25.70;;;15.40;;
313;SDS011;143;51.634;7.112;2022-12-07T02:29:33;25.70;;;15.15;;
313;SDS011;143;51.634;7.112;2022-12-07T02:35:21;21.20;;;13.00;;
313;SDS011;143;51.634;7.112;2022-12-07T02:37:53;24.65;;;14.70;;
313;SDS011;143;51.634;7.112;2022-12-07T02:40:50;21.20;;;14.33;;
313;SDS011;143;51.634;7.112;2022-12-07T02:43:25;22.23;;;14.50;;
313;SDS011;143;51.634;7.112;2022-12-07T02:46:01;25.15;;;15.15;;
313;SDS011;143;51.634;7.112;2022-12-07T02:48:31;22.77;;;14.97;;
313;SDS011;143;51.634;7.112;2022-12-07T02:50:58;20.80;;;13.57;;
313;SDS011;143;51.634;7.112;2022-12-07T02:53:34;23.87;;;14.40;;
313;SDS011;143;51.634;7.112;2022-12-07T02:56:27;23.60;;;14.18;;
313;SDS011;143;51.634;7.112;2022-12-07T03:07:00;22.88;;;13.45;;
313;SDS011;143;51.634;7.112;2022-12-07T03:09:43;23.30;;;14.27;;
313;SDS011;143;51.634;7.112;2022-12-07T03:12:32;22.27;;;13.80;;
313;SDS011;143;51.634;7.112;2022-12-07T03:15:07;21.08;;;12.90;;
313;SDS011;143;51.634;7.112;2022-12-07T03:17:39;20.88;;;12.82;;
313;SDS011;143;51.634;7.112;2022-12-07T03:20:09;27.25;;;15.00;;
313;SDS011;143;51.634;7.112;2022-12-07T03:22:38;32.25;;;15.45;;
313;SDS011;143;51.634;7.112;2022-12-07T03:25:07;24.05;;;14.88;;
313;SDS011;143;51.634;7.112;2022-12-07T03:30:12;27.30;;;15.38;;
313;SDS011;143;51.634;7.112;2022-12-07T03:35:28;19.42;;;12.68;;
313;SDS011;143;51.634;7.112;2022-12-07T03:40:41;30.45;;;14.18;;
313;SDS011;143;51.634;7.112;2022-12-07T03:43:15;26.35;;;14.13;;
313;SDS011;143;51.634;7.112;2022-12-07T03:45:43;20.95;;;15.07;;
313;SDS011;143;51.634;7.112;2022-12-07T03:51:34;21.88;;;13.45;;
313;SDS011;143;51.634;7.112;2022-12-07T03:54:10;28.95;;;14.30;;
313;SDS011;143;51.634;7.112;2022-12-07T03:56:44;22.92;;;14.20;;
313;SDS011;143;51.634;7.112;2022-12-07T03:59:12;24.25;;;14.10;;
313;SDS011;143;51.634;7.112;2022-12-07T04:01:44;26.00;;;15.57;;
313;SDS011;143;51.634;7.112;2022-12-07T04:04:10;24.65;;;14.73;;
313;SDS011;143;51.634;7.112;2022-12-07T04:06:36;28.80;;;15.80;;
313;SDS011;143;51.634;7.112;2022-12-07T04:09:02;23.47;;;12.83;;
313;SDS011;143;51.634;7.112;2022-12-07T04:11:28;24.70;;;14.20;;
313;SDS011;143;51.634;7.112;2022-12-07T04:13:53;21.30;;;13.67;;
313;SDS011;143;51.634;7.112;2022-12-07T04:16:37;22.13;;;13.57;;
313;SDS011;143;51.634;7.112;2022-12-07T04:19:03;19.20;;;12.67;;
313;SDS011;143;51.634;7.112;2022-12-07T04:21:28;26.77;;;13.33;;
313;SDS011;143;51.634;7.112;2022-12-07T04:23:54;20.10;;;12.73;;
313;SDS011;143;51.634;7.112;2022-12-07T04:26:20;20.63;;;12.73;;
313;SDS011;143;51.634;7.112;2022-12-07T04:28:45;22.90;;;13.93;;
313;SDS011;143;51.634;7.112;2022-12-07T04:31:11;22.90;;;13.27;;
313;SDS011;143;51.634;7.112;2022-12-07T04:33:37;19.20;;;13.13;;
313;SDS011;143;51.634;7.112;2022-12-07T04:36:02;21.80;;;12.73;;
313;SDS011;143;51.634;7.112;2022-12-07T04:38:28;22.93;;;12.60;;
313;SDS011;143;51.634;7.112;2022-12-07T04:40:54;20.53;;;13.20;;
313;SDS011;143;51.634;7.112;2022-12-07T04:43:19;21.03;;;12.70;;
313;SDS011;143;51.634;7.112;2022-12-07T04:45:48;21.53;;;12.93;;
313;SDS011;143;51.634;7.112;2022-12-07T04:48:15;20.83;;;13.45;;
313;SDS011;143;51.634;7.112;2022-12-07T04:50:41;25.40;;;13.73;;
313;SDS011;143;51.634;7.112;2022-12-07T04:53:06;20.40;;;14.23;;
313;SDS011;143;51.634;7.112;2022-12-07T04:55:32;18.90;;;12.50;;
313;SDS011;143;51.634;7.112;2022-12-07T04:57:58;18.23;;;12.10;;
313;SDS011;143;51.634;7.112;2022-12-07T05:00:23;22.83;;;12.10;;
313;SDS011;143;51.634;7.112;2022-12-07T05:02:49;18.90;;;11.73;;
313;SDS011;143;51.634;7.112;2022-12-07T05:05:15;20.63;;;12.37;;
313;SDS011;143;51.634;7.112;2022-12-07T05:07:40;30.30;;;12.47;;
313;SDS011;143;51.634;7.112;2022-12-07T05:10:06;22.77;;;13.43;;
313;SDS011;143;51.634;7.112;2022-12-07T05:12:32;23.30;;;12.60;;
313;SDS011;143;51.634;7.112;2022-12-07T05:14:58;19.40;;;13.00;;
313;SDS011;143;51.634;7.112;2022-12-07T05:17:23;18.00;;;11.33;;
313;SDS011;143;51.634;7.112;2022-12-07T05:19:49;23.17;;;12.90;;
313;SDS011;143;51.634;7.112;2022-12-07T05:22:15;17.63;;;11.50;;
313;SDS011;143;51.634;7.112;2022-12-07T05:24:40;28.13;;;13.23;;
313;SDS011;143;51.634;7.112;2022-12-07T05:27:06;20.83;;;12.23;;
313;SDS011;143;51.634;7.112;2022-12-07T05:29:32;21.10;;;12.10;;
313;SDS011;143;51.634;7.112;2022-12-07T05:31:57;29.07;;;13.60;;
313;SDS011;143;51.634;7.112;2022-12-07T05:34:23;21.80;;;12.67;;
313;SDS011;143;51.634;7.112;2022-12-07T05:36:49;28.97;;;12.97;;
313;SDS011;143;51.634;7.112;2022-12-07T05:39:15;17.73;;;11.60;;
313;SDS011;143;51.634;7.112;2022-12-07T05:41:41;19.50;;;11.70;;
313;SDS011;143;51.634;7.112;2022-12-07T05:44:25;21.88;;;10.82;;
313;SDS011;143;51.634;7.112;2022-12-07T05:46:50;24.20;;;12.40;;
313;SDS011;143;51.634;7.112;2022-12-07T05:49:16;21.10;;;12.27;;
313;SDS011;143;51.634;7.112;2022-12-07T05:51:42;27.77;;;11.43;;
313;SDS011;143;51.634;7.112;2022-12-07T05:54:07;16.23;;;10.70;;
313;SDS011;143;51.634;7.112;2022-12-07T05:56:33;20.33;;;11.00;;
313;SDS011;143;51.634;7.112;2022-12-07T05:58:59;19.70;;;11.33;;
313;SDS011;143;51.634;7.112;2022-12-07T06:01:43;24.45;;;11.55;;
313;SDS011;143;51.634;7.112;2022-12-07T06:04:09;21.43;;;11.60;;
313;SDS011;143;51.634;7.112;2022-12-07T06:06:34;18.50;;;11.13;;
313;SDS011;143;51.634;7.112;2022-12-07T06:09:00;19.37;;;11.47;;
313;SDS011;143;51.634;7.112;2022-12-07T06:11:26;16.50;;;9.90;;
313;SDS011;143;51.634;7.112;2022-12-07T06:14:10;20.10;;;12.00;;
313;SDS011;143;51.634;7.112;2022-12-07T06:16:36;18.37;;;11.10;;
313;SDS011;143;51.634;7.112;2022-12-07T06:19:02;19.20;;;11.00;;
313;SDS011;143;51.634;7.112;2022-12-07T06:21:27;26.57;;;10.90;;
313;SDS011;143;51.634;7.112;2022-12-07T06:23:53;24.53;;;13.57;;
313;SDS011;143;51.634;7.112;2022-12-07T06:26:19;21.90;;;11.40;;
313;SDS011;143;51.634;7.112;2022-12-07T06:28:45;16.10;;;10.47;;
313;SDS011;143;51.634;7.112;2022-12-07T06:31:10;22.77;;;10.83;;
313;SDS011;143;51.634;7.112;2022-12-07T06:33:36;21.67;;;12.03;;
313;SDS011;143;51.634;7.112;2022-12-07T06:36:02;23.93;;;12.47;;
313;SDS011;143;51.634;7.112;2022-12-07T06:38:28;23.03;;;11.80;;
313;SDS011;143;51.634;7.112;2022-12-07T06:40:53;19.10;;;12.10;;
313;SDS011;143;51.634;7.112;2022-12-07T06:43:19;20.63;;;10.77;;
313;SDS011;143;51.634;7.112;2022-12-07T06:45:45;20.37;;;10.23;;
313;SDS011;143;51.634;7.112;2022-12-07T06:48:10;22.60;;;9.47;;
313;SDS011;143;51.634;7.112;2022-12-07T06:50:36;19.40;;;10.23;;
313;SDS011;143;51.634;7.112;2022-12-07T06:53:02;14.80;;;9.47;;
313;SDS011;143;51.634;7.112;2022-12-07T06:55:27;16.63;;;10.23;;
313;SDS011;143;51.634;7.112;2022-12-07T06:57:53;13.50;;;9.20;;
313;SDS011;143;51.634;7.112;2022-12-07T07:00:19;21.60;;;10.93;;
313;SDS011;143;51.634;7.112;2022-12-07T07:02:45;20.07;;;9.93;;
313;SDS011;143;51.634;7.112;2022-12-07T07:05:10;16.83;;;9.90;;
313;SDS011;143;51.634;7.112;2022-12-07T07:07:36;13.63;;;9.40;;
313;SDS011;143;51.634;7.112;2022-12-07T07:10:02;25.90;;;11.50;;
313;SDS011;143;51.634;7.112;2022-12-07T07:12:27;19.83;;;10.75;;
313;SDS011;143;51.634;7.112;2022-12-07T07:14:53;15.90;;;10.30;;
313;SDS011;143;51.634;7.112;2022-12-07T07:17:19;16.43;;;9.50;;
313;SDS011;143;51.634;7.112;2022-12-07T07:19:44;18.90;;;9.83;;
313;SDS011;143;51.634;7.112;2022-12-07T07:22:11;19.77;;;9.77;;
313;SDS011;143;51.634;7.112;2022-12-07T07:24:37;15.67;;;10.03;;
313;SDS011;143;51.634;7.112;2022-12-07T07:27:02;16.67;;;10.30;;
313;SDS011;143;51.634;7.112;2022-12-07T07:29:28;18.67;;;9.30;;
313;SDS011;143;51.634;7.112;2022-12-07T07:31:54;15.87;;;9.73;;
313;SDS011;143;51.634;7.112;2022-12-07T07:34:19;15.23;;;10.03;;
313;SDS011;143;51.634;7.112;2022-12-07T07:36:45;17.67;;;10.90;;
313;SDS011;143;51.634;7.112;2022-12-07T07:39:11;23.47;;;10.20;;
313;SDS011;143;51.634;7.112;2022-12-07T07:41:37;18.13;;;10.75;;
313;SDS011;143;51.634;7.112;2022-12-07T07:44:03;23.60;;;11.00;;
313;SDS011;143;51.634;7.112;2022-12-07T07:46:29;16.87;;;9.67;;
313;SDS011;143;51.634;7.112;2022-12-07T07:48:55;23.13;;;9.97;;
313;SDS011;143;51.634;7.112;2022-12-07T07:51:21;16.20;;;9.80;;
313;SDS011;143;51.634;7.112;2022-12-07T07:53:46;16.20;;;10.00;;
313;SDS011;143;51.634;7.112;2022-12-07T07:56:12;13.77;;;8.23;;
313;SDS011;143;51.634;7.112;2022-12-07T07:58:38;14.67;;;8.13;;
313;SDS011;143;51.634;7.112;2022-12-07T08:01:07;16.45;;;9.07;;
313;SDS011;143;51.634;7.112;2022-12-07T08:03:33;16.67;;;9.15;;
313;SDS011;143;51.634;7.112;2022-12-07T08:05:59;19.13;;;8.00;;
313;SDS011;143;51.634;7.112;2022-12-07T08:08:26;15.15;;;8.15;;
313;SDS011;143;51.634;7.112;2022-12-07T08:10:52;20.00;;;9.20;;
313;SDS011;143;51.634;7.112;2022-12-07T08:13:17;22.63;;;9.40;;
313;SDS011;143;51.634;7.112;2022-12-07T08:15:44;18.93;;;8.40;;
313;SDS011;143;51.634;7.112;2022-12-07T08:18:11;18.10;;;8.18;;
313;SDS011;143;51.634;7.112;2022-12-07T08:20:39;20.30;;;7.95;;
313;SDS011;143;51.634;7.112;2022-12-07T08:23:06;20.80;;;8.07;;
313;SDS011;143;51.634;7.112;2022-12-07T08:25:32;25.38;;;8.25;;
313;SDS011;143;51.634;7.112;2022-12-07T08:27:58;15.30;;;8.43;;
313;SDS011;143;51.634;7.112;2022-12-07T08:30:23;14.20;;;7.80;;
313;SDS011;143;51.634;7.112;2022-12-07T08:32:49;15.27;;;8.83;;
313;SDS011;143;51.634;7.112;2022-12-07T08:35:15;14.00;;;7.70;;
313;SDS011;143;51.634;7.112;2022-12-07T08:37:41;13.70;;;8.33;;
313;SDS011;143;51.634;7.112;2022-12-07T08:40:07;21.17;;;9.30;;
313;SDS011;143;51.634;7.112;2022-12-07T08:42:34;20.15;;;9.02;;
313;SDS011;143;51.634;7.112;2022-12-07T08:45:09;18.38;;;8.77;;
313;SDS011;143;51.634;7.112;2022-12-07T08:47:37;19.48;;;8.02;;
313;SDS011;143;51.634;7.112;2022-12-07T08:50:12;16.27;;;8.10;;
313;SDS011;143;51.634;7.112;2022-12-07T08:52:38;13.82;;;8.45;;
313;SDS011;143;51.634;7.112;2022-12-07T08:55:06;17.83;;;8.50;;
313;SDS011;143;51.634;7.112;2022-12-07T08:57:34;14.25;;;7.68;;
313;SDS011;143;51.634;7.112;2022-12-07T09:00:01;18.52;;;7.78;;
313;SDS011;143;51.634;7.112;2022-12-07T09:02:28;16.33;;;8.18;;
313;SDS011;143;51.634;7.112;2022-12-07T09:04:56;15.38;;;6.90;;
313;SDS011;143;51.634;7.112;2022-12-07T09:07:21;15.93;;;6.83;;
313;SDS011;143;51.634;7.112;2022-12-07T09:09:47;11.53;;;6.30;;
313;SDS011;143;51.634;7.112;2022-12-07T09:12:13;12.90;;;6.30;;
313;SDS011;143;51.634;7.112;2022-12-07T09:14:39;14.47;;;6.80;;
313;SDS011;143;51.634;7.112;2022-12-07T09:17:07;23.50;;;5.73;;
313;SDS011;143;51.634;7.112;2022-12-07T09:19:35;18.10;;;5.40;;
313;SDS011;143;51.634;7.112;2022-12-07T09:22:01;13.48;;;5.72;;
313;SDS011;143;51.634;7.112;2022-12-07T09:24:27;17.05;;;5.68;;
313;SDS011;143;51.634;7.112;2022-12-07T09:26:53;12.53;;;6.30;;
313;SDS011;143;51.634;7.112;2022-12-07T09:29:18;12.07;;;6.27;;
313;SDS011;143;51.634;7.112;2022-12-07T09:31:44;14.60;;;5.90;;
313;SDS011;143;51.634;7.112;2022-12-07T09:34:10;8.27;;;5.50;;
313;SDS011;143;51.634;7.112;2022-12-07T09:36:36;11.80;;;5.63;;
313;SDS011;143;51.634;7.112;2022-12-07T09:39:01;14.43;;;5.40;;
313;SDS011;143;51.634;7.112;2022-12-07T09:41:29;19.52;;;6.28;;
313;SDS011;143;51.634;7.112;2022-12-07T09:43:59;13.65;;;5.80;;
313;SDS011;143;51.634;7.112;2022-12-07T09:46:31;18.40;;;5.20;;
313;SDS011;143;51.634;7.112;2022-12-07T09:49:02;10.47;;;5.23;;
313;SDS011;143;51.634;7.112;2022-12-07T09:51:28;10.63;;;4.60;;
313;SDS011;143;51.634;7.112;2022-12-07T09:53:55;9.27;;;3.73;;
313;SDS011;143;51.634;7.112;2022-12-07T09:56:22;10.38;;;4.32;;
313;SDS011;143;51.634;7.112;2022-12-07T09:58:50;9.30;;;4.57;;
313;SDS011;143;51.634;7.112;2022-12-07T10:01:22;8.40;;;4.60;;
313;SDS011;143;51.634;7.112;2022-12-07T10:03:49;11.97;;;5.57;;
313;SDS011;143;51.634;7.112;2022-12-07T10:06:20;14.13;;;3.70;;
313;SDS011;143;51.634;7.112;2022-12-07T10:08:46;16.40;;;4.20;;
313;SDS011;143;51.634;7.112;2022-12-07T10:11:12;8.00;;;3.50;;
313;SDS011;143;51.634;7.112;2022-12-07T10:13:45;8.03;;;3.53;;
313;SDS011;143;51.634;7.112;2022-12-07T10:19:38;6.13;;;3.00;;
313;SDS011;143;51.634;7.112;2022-12-07T10:22:01;5.77;;;2.23;;
313;SDS011;143;51.634;7.112;2022-12-07T10:24:35;6.10;;;2.60;;
313;SDS011;143;51.634;7.112;2022-12-07T10:27:04;5.70;;;3.00;;
313;SDS011;143;51.634;7.112;2022-12-07T10:29:42;10.27;;;2.30;;
313;SDS011;143;51.634;7.112;2022-12-07T10:34:41;11.07;;;2.47;;
313;SDS011;143;51.634;7.112;2022-12-07T10:39:43;9.23;;;2.80;;
313;SDS011;143;51.634;7.112;2022-12-07T10:42:19;11.53;;;2.93;;
313;SDS011;143;51.634;7.112;2022-12-07T10:44:49;7.07;;;2.73;;
313;SDS011;143;51.634;7.112;2022-12-07T11:15:22;9.70;;;3.20;;
313;SDS011;143;51.634;7.112;2022-12-07T11:18:11;5.10;;;3.20;;
313;SDS011;143;51.634;7.112;2022-12-07T11:23:44;8.63;;;3.30;;
313;SDS011;143;51.634;7.112;2022-12-07T11:36:52;10.00;;;3.40;;
313;SDS011;143;51.634;7.112;2022-12-07T11:39:26;6.70;;;3.73;;
313;SDS011;143;51.634;7.112;2022-12-07T11:42:04;9.60;;;3.60;;
313;SDS011;143;51.634;7.112;2022-12-07T11:52:59;19.23;;;3.30;;
313;SDS011;143;51.634;7.112;2022-12-07T11:55:43;12.50;;;3.40;;
313;SDS011;143;51.634;7.112;2022-12-07T12:00:48;10.90;;;3.20;;
313;SDS011;143;51.634;7.112;2022-12-07T12:03:28;7.87;;;3.47;;
313;SDS011;143;51.634;7.112;2022-12-07T12:06:02;17.30;;;3.70;;
313;SDS011;143;51.634;7.112;2022-12-07T12:08:30;7.97;;;3.73;;
313;SDS011;143;51.634;7.112;2022-12-07T12:22:48;9.30;;;2.83;;
313;SDS011;143;51.634;7.112;2022-12-07T12:25:26;5.40;;;2.30;;
313;SDS011;143;51.634;7.112;2022-12-07T12:27:59;6.00;;;2.83;;
313;SDS011;143;51.634;7.112;2022-12-07T12:30:35;5.03;;;2.07;;
313;SDS011;143;51.634;7.112;2022-12-07T12:47:02;6.30;;;2.10;;
313;SDS011;143;51.634;7.112;2022-12-07T12:55:44;5.10;;;2.20;;
313;SDS011;143;51.634;7.112;2022-12-07T13:00:44;13.83;;;4.03;;
313;SDS011;143;51.634;7.112;2022-12-07T13:03:33;14.33;;;3.20;;
313;SDS011;143;51.634;7.112;2022-12-07T13:08:49;10.20;;;2.70;;
313;SDS011;143;51.634;7.112;2022-12-07T13:11:17;6.60;;;2.80;;
313;SDS011;143;51.634;7.112;2022-12-07T13:17:11;5.27;;;2.37;;
313;SDS011;143;51.634;7.112;2022-12-07T13:19:59;8.73;;;2.30;;
313;SDS011;143;51.634;7.112;2022-12-07T13:27:51;11.63;;;4.20;;
313;SDS011;143;51.634;7.112;2022-12-07T13:30:22;16.63;;;2.73;;
313;SDS011;143;51.634;7.112;2022-12-07T13:32:52;6.33;;;1.77;;
313;SDS011;143;51.634;7.112;2022-12-07T13:37:56;6.40;;;3.27;;
313;SDS011;143;51.634;7.112;2022-12-07T13:40:23;9.50;;;2.00;;
313;SDS011;143;51.634;7.112;2022-12-07T13:42:56;6.10;;;2.03;;
313;SDS011;143;51.634;7.112;2022-12-07T13:45:26;12.10;;;2.20;;
313;SDS011;143;51.634;7.112;2022-12-07T13:51:02;15.33;;;2.20;;
313;SDS011;143;51.634;7.112;2022-12-07T13:53:29;4.40;;;2.23;;
313;SDS011;143;51.634;7.112;2022-12-07T13:55:56;16.67;;;3.00;;
313;SDS011;143;51.634;7.112;2022-12-07T13:58:24;9.10;;;2.70;;
313;SDS011;143;51.634;7.112;2022-12-07T14:00:52;10.77;;;2.40;;
313;SDS011;143;51.634;7.112;2022-12-07T14:06:03;10.17;;;2.73;;
313;SDS011;143;51.634;7.112;2022-12-07T14:08:41;6.23;;;2.60;;
313;SDS011;143;51.634;7.112;2022-12-07T14:11:09;6.57;;;2.30;;
313;SDS011;143;51.634;7.112;2022-12-07T14:14:02;10.13;;;3.20;;
313;SDS011;143;51.634;7.112;2022-12-07T14:16:34;5.20;;;2.30;;
313;SDS011;143;51.634;7.112;2022-12-07T14:19:03;10.83;;;2.60;;
313;SDS011;143;51.634;7.112;2022-12-07T14:21:33;7.77;;;2.57;;
313;SDS011;143;51.634;7.112;2022-12-07T14:26:54;3.13;;;2.40;;
313;SDS011;143;51.634;7.112;2022-12-07T14:31:57;10.00;;;2.80;;
313;SDS011;143;51.634;7.112;2022-12-07T14:34:26;9.00;;;2.97;;
313;SDS011;143;51.634;7.112;2022-12-07T14:36:52;9.23;;;3.03;;
313;SDS011;143;51.634;7.112;2022-12-07T14:39:18;8.17;;;2.40;;
313;SDS011;143;51.634;7.112;2022-12-07T14:41:43;3.97;;;2.50;;
313;SDS011;143;51.634;7.112;2022-12-07T14:44:21;4.07;;;2.77;;
313;SDS011;143;51.634;7.112;2022-12-07T14:46:49;7.40;;;1.97;;
313;SDS011;143;51.634;7.112;2022-12-07T14:49:15;5.17;;;2.80;;
313;SDS011;143;51.634;7.112;2022-12-07T14:51:41;9.37;;;2.43;;
313;SDS011;143;51.634;7.112;2022-12-07T14:54:27;12.50;;;3.07;;
313;SDS011;143;51.634;7.112;2022-12-07T14:56:56;9.97;;;3.20;;
313;SDS011;143;51.634;7.112;2022-12-07T14:59:21;6.73;;;3.00;;
313;SDS011;143;51.634;7.112;2022-12-07T15:01:47;3.30;;;2.33;;
313;SDS011;143;51.634;7.112;2022-12-07T15:04:13;12.27;;;4.03;;
313;SDS011;143;51.634;7.112;2022-12-07T15:06:38;7.13;;;3.10;;
313;SDS011;143;51.634;7.112;2022-12-07T15:09:05;8.47;;;3.50;;
313;SDS011;143;51.634;7.112;2022-12-07T15:11:31;6.30;;;3.23;;
313;SDS011;143;51.634;7.112;2022-12-07T15:13:56;6.70;;;3.23;;
313;SDS011;143;51.634;7.112;2022-12-07T15:16:36;10.07;;;2.87;;
313;SDS011;143;51.634;7.112;2022-12-07T15:19:04;11.30;;;4.17;;
313;SDS011;143;51.634;7.112;2022-12-07T15:21:30;10.53;;;3.57;;
313;SDS011;143;51.634;7.112;2022-12-07T15:23:56;11.17;;;3.43;;
313;SDS011;143;51.634;7.112;2022-12-07T15:26:22;6.60;;;3.13;;
313;SDS011;143;51.634;7.112;2022-12-07T15:28:47;8.00;;;3.17;;
313;SDS011;143;51.634;7.112;2022-12-07T15:31:13;6.03;;;3.07;;
313;SDS011;143;51.634;7.112;2022-12-07T15:33:40;8.95;;;3.00;;
313;SDS011;143;51.634;7.112;2022-12-07T15:36:07;10.50;;;3.50;;
313;SDS011;143;51.634;7.112;2022-12-07T15:38:36;8.77;;;3.45;;
313;SDS011;143;51.634;7.112;2022-12-07T15:41:02;7.90;;;3.80;;
313;SDS011;143;51.634;7.112;2022-12-07T15:43:28;8.73;;;3.07;;
313;SDS011;143;51.634;7.112;2022-12-07T15:46:12;12.73;;;4.88;;
313;SDS011;143;51.634;7.112;2022-12-07T15:48:39;8.07;;;2.90;;
313;SDS011;143;51.634;7.112;2022-12-07T15:51:05;13.07;;;3.27;;
313;SDS011;143;51.634;7.112;2022-12-07T15:53:32;9.97;;;3.10;;
313;SDS011;143;51.634;7.112;2022-12-07T15:55:58;11.50;;;3.35;;
313;SDS011;143;51.634;7.112;2022-12-07T15:58:24;7.70;;;3.40;;
313;SDS011;143;51.634;7.112;2022-12-07T16:00:50;16.07;;;5.77;;
313;SDS011;143;51.634;7.112;2022-12-07T16:03:16;7.03;;;3.70;;
313;SDS011;143;51.634;7.112;2022-12-07T16:05:41;9.13;;;3.57;;
313;SDS011;143;51.634;7.112;2022-12-07T16:08:13;9.40;;;3.37;;
313;SDS011;143;51.634;7.112;2022-12-07T16:10:39;16.90;;;4.20;;
313;SDS011;143;51.634;7.112;2022-12-07T16:13:08;8.75;;;3.30;;
313;SDS011;143;51.634;7.112;2022-12-07T16:15:37;8.60;;;3.70;;
313;SDS011;143;51.634;7.112;2022-12-07T16:18:04;15.05;;;4.13;;
313;SDS011;143;51.634;7.112;2022-12-07T16:20:29;4.83;;;2.80;;
313;SDS011;143;51.634;7.112;2022-12-07T16:22:55;7.03;;;3.57;;
313;SDS011;143;51.634;7.112;2022-12-07T16:25:21;11.70;;;4.00;;
313;SDS011;143;51.634;7.112;2022-12-07T16:27:46;5.40;;;3.50;;
313;SDS011;143;51.634;7.112;2022-12-07T16:30:14;9.43;;;3.90;;
313;SDS011;143;51.634;7.112;2022-12-07T16:32:41;14.85;;;3.90;;
313;SDS011;143;51.634;7.112;2022-12-07T16:35:07;10.53;;;4.07;;
313;SDS011;143;51.634;7.112;2022-12-07T16:37:33;13.60;;;4.13;;
313;SDS011;143;51.634;7.112;2022-12-07T16:39:59;9.50;;;4.20;;
313;SDS011;143;51.634;7.112;2022-12-07T16:42:25;10.03;;;3.80;;
313;SDS011;143;51.634;7.112;2022-12-07T16:44:51;9.85;;;3.88;;
313;SDS011;143;51.634;7.112;2022-12-07T16:47:17;7.77;;;3.43;;
313;SDS011;143;51.634;7.112;2022-12-07T16:49:43;21.47;;;4.40;;
313;SDS011;143;51.634;7.112;2022-12-07T16:52:08;6.87;;;3.23;;
313;SDS011;143;51.634;7.112;2022-12-07T16:54:35;13.63;;;4.63;;
313;SDS011;143;51.634;7.112;2022-12-07T16:57:01;7.70;;;4.03;;
313;SDS011;143;51.634;7.112;2022-12-07T16:59:27;6.50;;;3.53;;
313;SDS011;143;51.634;7.112;2022-12-07T17:01:52;8.43;;;3.50;;
313;SDS011;143;51.634;7.112;2022-12-07T17:04:18;12.67;;;4.10;;
313;SDS011;143;51.634;7.112;2022-12-07T17:06:44;13.20;;;4.77;;
313;SDS011;143;51.634;7.112;2022-12-07T17:09:09;8.33;;;3.80;;
313;SDS011;143;51.634;7.112;2022-12-07T17:11:37;8.68;;;4.50;;
313;SDS011;143;51.634;7.112;2022-12-07T17:14:03;12.83;;;3.90;;
313;SDS011;143;51.634;7.112;2022-12-07T17:16:47;6.35;;;3.55;;
313;SDS011;143;51.634;7.112;2022-12-07T17:19:14;12.10;;;5.10;;
313;SDS011;143;51.634;7.112;2022-12-07T17:21:41;6.45;;;3.95;;
313;SDS011;143;51.634;7.112;2022-12-07T17:24:09;10.70;;;5.65;;
313;SDS011;143;51.634;7.112;2022-12-07T17:26:36;7.10;;;4.22;;
313;SDS011;143;51.634;7.112;2022-12-07T17:29:03;15.43;;;4.88;;
313;SDS011;143;51.634;7.112;2022-12-07T17:31:30;7.85;;;4.93;;
313;SDS011;143;51.634;7.112;2022-12-07T17:33:57;6.28;;;3.95;;
313;SDS011;143;51.634;7.112;2022-12-07T17:36:24;8.60;;;4.40;;
313;SDS011;143;51.634;7.112;2022-12-07T17:38:53;8.43;;;4.57;;
313;SDS011;143;51.634;7.112;2022-12-07T17:41:23;9.37;;;5.00;;
313;SDS011;143;51.634;7.112;2022-12-07T17:44:10;10.18;;;4.90;;
313;SDS011;143;51.634;7.112;2022-12-07T17:46:40;10.27;;;4.60;;
313;SDS011;143;51.634;7.112;2022-12-07T17:49:06;10.40;;;5.07;;
313;SDS011;143;51.634;7.112;2022-12-07T17:51:32;5.28;;;4.40;;
313;SDS011;143;51.634;7.112;2022-12-07T17:54:16;8.13;;;4.88;;
313;SDS011;143;51.634;7.112;2022-12-07T17:56:42;14.18;;;5.63;;
313;SDS011;143;51.634;7.112;2022-12-07T17:59:08;7.23;;;4.97;;
313;SDS011;143;51.634;7.112;2022-12-07T18:01:35;10.70;;;5.80;;
313;SDS011;143;51.634;7.112;2022-12-07T18:04:03;12.93;;;5.17;;